Time;durP1;ratioP1;P1;durP2;ratioP2;P2;SDS_P1;SDS_P2;PMS_P1;PMS_P2;Temp;Humidity;BMP_temperature;BMP_pressure;BME280_temperature;BME280_humidity;BME280_pressure;Samples;Min_cycle;Max_cycle;Signal;HPM_P1;HPM_P2
2022/09/18 00:01:24;;;;;;;5.63;1.80;;;8.60;99.90;;;;;;5073265;28;20673;-62
2022/09/18 00:03:51;;;;;;;7.80;2.05;;;8.60;99.90;;;;;;5073794;28;20228;-62
2022/09/18 00:06:20;;;;;;;8.43;1.77;;;8.60;99.90;;;;;;5073740;28;20212;-61
2022/09/18 00:08:51;;;;;;;6.38;1.55;;;8.60;99.90;;;;;;5073129;28;20731;-62
2022/09/18 00:11:19;;;;;;;8.75;1.45;;;8.60;99.90;;;;;;5073648;28;20201;-62
2022/09/18 00:13:47;;;;;;;6.40;1.67;;;8.60;99.90;;;;;;5073349;28;20227;-63
2022/09/18 00:16:15;;;;;;;6.57;1.83;;;8.60;99.90;;;;;;5072921;28;20704;-60
2022/09/18 00:18:43;;;;;;;4.65;2.10;;;8.60;99.90;;;;;;5073017;28;20677;-62
2022/09/18 00:21:12;;;;;;;8.80;1.65;;;8.60;99.90;;;;;;5073081;28;20197;-61
2022/09/18 00:23:40;;;;;;;3.95;1.63;;;8.70;99.90;;;;;;5073110;28;20217;-63
2022/09/18 00:26:07;;;;;;;6.03;1.63;;;8.70;99.90;;;;;;5076223;28;20549;-61
2022/09/18 00:28:35;;;;;;;10.18;1.48;;;8.70;99.90;;;;;;5077468;28;20204;-61
2022/09/18 00:31:07;;;;;;;7.75;1.58;;;8.70;99.90;;;;;;5077192;28;20569;-62
2022/09/18 00:33:36;;;;;;;6.88;1.40;;;8.80;99.90;;;;;;5076899;28;20727;-61
2022/09/18 00:36:05;;;;;;;12.10;2.50;;;8.80;99.90;;;;;;5077266;28;20311;-62
2022/09/18 00:38:32;;;;;;;4.70;1.65;;;8.80;99.90;;;;;;5076988;28;20203;-63
2022/09/18 00:40:59;;;;;;;2.65;1.10;;;8.80;99.90;;;;;;5076858;28;20205;-62
2022/09/18 00:43:28;;;;;;;2.08;1.75;;;8.80;99.90;;;;;;5076674;28;20689;-61
2022/09/18 00:45:57;;;;;;;4.30;1.60;;;8.90;99.90;;;;;;5076541;28;20664;-62
2022/09/18 00:48:30;;;;;;;12.05;1.88;;;8.90;99.90;;;;;;5076872;28;20205;-62
2022/09/18 00:50:59;;;;;;;5.20;1.83;;;9.00;99.90;;;;;;5077142;28;20185;-62
2022/09/18 00:53:26;;;;;;;7.28;1.63;;;9.00;99.90;;;;;;5077075;28;20221;-63
2022/09/18 00:55:53;;;;;;;7.63;1.58;;;9.00;99.90;;;;;;5076780;28;20225;-60
2022/09/18 00:58:20;;;;;;;6.53;1.55;;;9.10;99.90;;;;;;5076798;28;20208;-61
2022/09/18 01:00:47;;;;;;;11.80;1.88;;;9.10;99.90;;;;;;5076501;28;20557;-61
2022/09/18 01:03:13;;;;;;;4.07;1.50;;;9.10;99.90;;;;;;5076074;28;20720;-61
2022/09/18 01:05:53;;;;;;;3.90;1.70;;;9.20;99.90;;;;;;5076782;28;20201;-62
2022/09/18 01:08:30;;;;;;;4.28;1.30;;;9.20;99.90;;;;;;5076001;28;20213;-61
2022/09/18 01:11:11;;;;;;;4.03;1.30;;;9.20;99.90;;;;;;5076498;28;20205;-61
2022/09/18 01:13:45;;;;;;;5.68;1.65;;;9.30;99.90;;;;;;5076402;28;20228;-62
2022/09/18 01:16:19;;;;;;;2.60;1.50;;;9.30;99.90;;;;;;5076222;28;20215;-61
2022/09/18 01:18:55;;;;;;;6.60;1.52;;;9.30;99.90;;;;;;5076286;28;20284;-61
2022/09/18 01:21:30;;;;;;;6.13;1.70;;;9.30;99.90;;;;;;5076440;28;20185;-61
2022/09/18 01:24:18;;;;;;;8.48;1.58;;;9.30;99.90;;;;;;5075904;28;20716;-62
2022/09/18 01:26:54;;;;;;;4.78;1.20;;;9.30;99.90;;;;;;5076230;28;20255;-62
2022/09/18 01:29:47;;;;;;;5.55;1.50;;;9.30;99.90;;;;;;5076495;28;20189;-62
2022/09/18 01:32:21;;;;;;;6.55;1.50;;;9.30;99.90;;;;;;5075929;28;20205;-62
2022/09/18 01:34:54;;;;;;;6.82;1.40;;;9.30;99.90;;;;;;5075596;28;20229;-61
2022/09/18 01:37:29;;;;;;;6.97;1.50;;;9.40;99.90;;;;;;5075085;28;20656;-61
2022/09/18 01:40:02;;;;;;;1.92;1.23;;;9.30;99.90;;;;;;5076052;28;20212;-61
2022/09/18 01:42:30;;;;;;;5.60;1.80;;;9.40;99.90;;;;;;5075698;28;20663;-62
2022/09/18 01:45:01;;;;;;;7.55;1.60;;;9.40;99.90;;;;;;5075869;28;20569;-61
2022/09/18 01:47:35;;;;;;;3.60;1.30;;;9.30;99.90;;;;;;5076383;28;20235;-61
2022/09/18 01:50:03;;;;;;;6.95;1.60;;;9.30;99.90;;;;;;5078123;28;20196;-61
2022/09/18 01:52:33;;;;;;;1.90;1.00;;;9.30;99.90;;;;;;5076078;28;20690;-62
2022/09/18 01:55:03;;;;;;;5.22;1.60;;;9.20;99.90;;;;;;5075765;28;20213;-62
2022/09/18 01:57:38;;;;;;;5.53;1.50;;;9.20;99.90;;;;;;5075629;28;20204;-61
2022/09/18 02:00:10;;;;;;;4.43;1.17;;;9.10;99.90;;;;;;5075938;28;20181;-62
2022/09/18 02:02:41;;;;;;;4.10;1.40;;;9.10;99.90;;;;;;5075446;28;20182;-62
2022/09/18 02:05:13;;;;;;;4.47;1.90;;;9.10;99.90;;;;;;5075179;28;20244;-62
2022/09/18 02:07:48;;;;;;;3.70;1.25;;;9.00;99.90;;;;;;5075376;28;20277;-61
2022/09/18 02:10:15;;;;;;;5.05;1.88;;;9.00;99.90;;;;;;5076419;28;20192;-61
2022/09/18 02:12:44;;;;;;;8.23;1.60;;;9.00;99.90;;;;;;5075939;28;20307;-61
2022/09/18 02:15:14;;;;;;;6.80;1.55;;;9.00;99.90;;;;;;5076407;28;20248;-61
2022/09/18 02:17:46;;;;;;;6.20;1.40;;;8.90;99.90;;;;;;5075637;28;20659;-61
2022/09/18 02:20:19;;;;;;;4.07;2.15;;;8.90;99.90;;;;;;5076160;28;20192;-62
2022/09/18 02:22:48;;;;;;;3.22;1.88;;;8.90;99.90;;;;;;5075644;28;20181;-61
2022/09/18 02:25:19;;;;;;;6.97;1.75;;;8.90;99.90;;;;;;5075869;28;20566;-61
2022/09/18 02:27:47;;;;;;;6.03;1.40;;;8.80;99.90;;;;;;5075259;28;20181;-62
2022/09/18 02:30:15;;;;;;;6.15;1.50;;;8.80;99.90;;;;;;5075036;28;20205;-61
2022/09/18 02:32:42;;;;;;;3.20;1.30;;;8.80;99.90;;;;;;5074538;28;20672;-61
2022/09/18 02:35:10;;;;;;;5.65;1.70;;;8.70;99.90;;;;;;5075587;28;20220;-61
2022/09/18 02:37:47;;;;;;;5.00;1.60;;;8.70;99.90;;;;;;5074841;28;20205;-61
2022/09/18 02:40:24;;;;;;;5.75;1.75;;;8.70;99.90;;;;;;5074482;28;20196;-61
2022/09/18 02:43:03;;;;;;;2.85;1.50;;;8.70;99.90;;;;;;5074567;28;20243;-62
2022/09/18 02:45:37;;;;;;;7.28;1.63;;;8.70;99.90;;;;;;5074198;28;20653;-60
2022/09/18 02:48:21;;;;;;;5.70;1.10;;;8.80;99.90;;;;;;5074216;28;20189;-62
2022/09/18 02:50:55;;;;;;;3.28;1.30;;;8.80;99.90;;;;;;5074283;28;20185;-62
2022/09/18 02:53:28;;;;;;;13.80;3.25;;;8.80;99.90;;;;;;5074335;28;20567;-62
2022/09/18 02:56:01;;;;;;;5.63;1.92;;;8.80;99.90;;;;;;5074267;28;20221;-62
2022/09/18 02:58:31;;;;;;;5.13;1.85;;;8.80;99.90;;;;;;5074531;28;20203;-62
2022/09/18 03:01:03;;;;;;;5.10;1.35;;;8.90;99.90;;;;;;5075020;28;20208;-62
2022/09/18 03:03:33;;;;;;;5.10;1.20;;;8.90;99.90;;;;;;5074244;28;20236;-61
2022/09/18 03:06:03;;;;;;;3.88;1.77;;;8.90;99.90;;;;;;5074229;28;20185;-62
2022/09/18 03:08:30;;;;;;;4.30;1.40;;;9.00;99.90;;;;;;5074003;28;20228;-62
2022/09/18 03:10:56;;;;;;;3.70;1.05;;;9.00;99.90;;;;;;5074060;28;20200;-62
2022/09/18 03:13:23;;;;;;;4.53;1.55;;;9.00;99.90;;;;;;5074103;28;20224;-62
2022/09/18 03:15:50;;;;;;;5.68;1.70;;;9.00;99.90;;;;;;5073566;28;20568;-62
2022/09/18 03:18:20;;;;;;;5.38;1.30;;;9.00;99.90;;;;;;5074032;28;20200;-62
2022/09/18 03:20:47;;;;;;;2.80;1.38;;;9.00;99.90;;;;;;5074242;28;20224;-62
2022/09/18 03:23:13;;;;;;;9.00;1.33;;;9.00;99.90;;;;;;5074546;28;20221;-62
2022/09/18 03:25:40;;;;;;;4.03;1.33;;;9.00;99.90;;;;;;5073367;28;20660;-62
2022/09/18 03:28:07;;;;;;;7.88;2.15;;;9.00;99.90;;;;;;5073345;28;20668;-62
2022/09/18 03:30:34;;;;;;;3.63;1.15;;;8.90;99.90;;;;;;5073409;28;20196;-62
2022/09/18 03:33:00;;;;;;;4.53;1.30;;;8.90;99.90;;;;;;5073089;28;20225;-62
2022/09/18 03:35:29;;;;;;;6.25;1.85;;;8.90;99.90;;;;;;5073407;28;20247;-62
2022/09/18 03:37:55;;;;;;;6.00;1.20;;;8.80;99.90;;;;;;5074636;28;20201;-61
2022/09/18 03:40:22;;;;;;;6.05;1.10;;;8.80;99.90;;;;;;5073538;28;20200;-62
2022/09/18 03:42:49;;;;;;;6.63;1.73;;;8.80;99.90;;;;;;5074832;28;20207;-61
2022/09/18 03:45:16;;;;;;;7.18;1.55;;;8.80;99.90;;;;;;5075795;28;20730;-61
2022/09/18 03:47:43;;;;;;;5.63;2.10;;;8.70;99.90;;;;;;5073917;28;20200;-62
2022/09/18 03:50:11;;;;;;;8.02;1.70;;;8.70;99.90;;;;;;5073605;28;20288;-61
2022/09/18 03:52:39;;;;;;;2.63;1.40;;;8.70;99.90;;;;;;5074101;28;20201;-61
2022/09/18 03:55:06;;;;;;;6.82;1.70;;;8.70;99.90;;;;;;5073515;28;20202;-61
2022/09/18 03:57:33;;;;;;;3.90;1.45;;;8.70;99.90;;;;;;5073733;28;20225;-62
2022/09/18 04:00:00;;;;;;;5.03;1.25;;;8.70;99.90;;;;;;5073281;28;20235;-63
2022/09/18 04:02:27;;;;;;;5.80;2.17;;;8.70;99.90;;;;;;5073441;28;20212;-61
2022/09/18 04:04:53;;;;;;;6.72;1.45;;;8.70;99.90;;;;;;5073247;28;20252;-62
2022/09/18 04:10:15;;;;;;;10.93;1.77;;;;;;;;;;5091001;28;20549;-62
2022/09/18 04:12:44;;;;;;;5.13;1.60;;;;;;;;;;5090856;28;20219;-61
2022/09/18 04:15:11;;;;;;;5.15;1.33;;;;;;;;;;5090682;28;20204;-61
2022/09/18 04:17:38;;;;;;;5.50;1.90;;;;;;;;;;5090568;28;20207;-61
2022/09/18 04:20:07;;;;;;;13.02;2.05;;;;;;;;;;5090691;28;20192;-62
2022/09/18 04:22:34;;;;;;;6.88;1.40;;;;;;;;;;5090381;28;20196;-61
2022/09/18 04:25:01;;;;;;;4.30;1.70;;;;;;;;;;5090350;28;20617;-61
2022/09/18 04:27:29;;;;;;;8.95;1.60;;;;;;;;;;5090165;28;20546;-60
2022/09/18 04:29:56;;;;;;;2.17;1.30;;;;;;;;;;5090484;28;20223;-61
2022/09/18 04:32:23;;;;;;;9.23;2.30;;;;;;;;;;5090300;28;20279;-62
2022/09/18 04:34:50;;;;;;;3.58;1.25;;;;;;;;;;5090064;28;20726;-61
2022/09/18 04:37:18;;;;;;;3.17;1.27;;;;;;;;;;5090561;28;20692;-60
2022/09/18 04:39:45;;;;;;;5.22;2.00;;;;;;;;;;5090473;28;20564;-62
2022/09/18 04:42:12;;;;;;;7.15;1.27;;;;;;;;;;5090416;28;20596;-61
2022/09/18 04:44:41;;;;;;;5.32;1.55;;;;;;;;;;5090520;28;20232;-61
2022/09/18 04:47:08;;;;;;;3.55;1.65;;;;;;;;;;5090386;28;20200;-61
2022/09/18 04:49:35;;;;;;;4.93;1.50;;;;;;;;;;5089938;28;20227;-61
2022/09/18 04:52:02;;;;;;;6.40;1.70;;;;;;;;;;5090257;28;20200;-62
2022/09/18 04:54:29;;;;;;;9.68;2.60;;;;;;;;;;5089857;28;20708;-61
2022/09/18 04:56:56;;;;;;;5.38;1.60;;;;;;;;;;5090281;28;20208;-61
2022/09/18 04:59:24;;;;;;;5.13;1.20;;;;;;;;;;5090090;28;20200;-62
2022/09/18 05:01:52;;;;;;;2.80;1.30;;;;;;;;;;5090352;28;20200;-62
2022/09/18 05:04:19;;;;;;;6.20;1.35;;;;;;;;;;5090087;28;20231;-62
2022/09/18 05:06:46;;;;;;;4.43;1.40;;;;;;;;;;5090274;28;20261;-61
2022/09/18 05:09:14;;;;;;;4.30;1.50;;;;;;;;;;5089616;28;20232;-62
2022/09/18 05:11:42;;;;;;;6.15;1.35;;;;;;;;;;5089851;28;20663;-62
2022/09/18 05:14:10;;;;;;;3.05;1.60;;;;;;;;;;5089887;28;20236;-62
2022/09/18 05:16:37;;;;;;;4.93;1.65;;;;;;;;;;5089879;28;20215;-62
2022/09/18 05:19:05;;;;;;;4.20;1.38;;;;;;;;;;5089638;28;20208;-61
2022/09/18 05:21:32;;;;;;;3.13;1.60;;;;;;;;;;5076463;28;20569;-61
2022/09/18 05:23:59;;;;;;;4.13;1.58;;;;;;;;;;5076285;28;20244;-62
2022/09/18 05:26:29;;;;;;;6.03;1.20;;;;;;;;;;5076359;28;20201;-62
2022/09/18 05:28:56;;;;;;;8.00;1.80;;;;;;;;;;5076376;28;20440;-62
2022/09/18 05:31:23;;;;;;;3.90;1.58;;;;;;;;;;5076381;28;20203;-62
2022/09/18 05:33:50;;;;;;;7.43;1.50;;;;;;;;;;5076605;28;20224;-63
2022/09/18 05:36:18;;;;;;;4.18;1.45;;;;;;;;;;5076846;28;20205;-61
2022/09/18 05:38:45;;;;;;;5.70;1.40;;;;;;;;;;5076958;28;20204;-62
2022/09/18 05:41:13;;;;;;;4.05;1.50;;;;;;;;;;5079164;28;20201;-61
2022/09/18 05:43:43;;;;;;;8.23;1.33;;;;;;;;;;5080964;28;20224;-61
2022/09/18 05:46:11;;;;;;;6.50;1.67;;;;;;;;;;5078219;28;20189;-62
2022/09/18 05:48:38;;;;;;;8.40;1.45;;;;;;;;;;5078158;28;20224;-61
2022/09/18 05:51:05;;;;;;;7.10;1.80;;;;;;;;;;5076993;28;20209;-62
2022/09/18 05:53:34;;;;;;;3.80;1.38;;;;;;;;;;5080256;28;20221;-62
2022/09/18 05:56:01;;;;;;;3.50;1.35;;;;;;;;;;5078640;28;20288;-62
2022/09/18 05:58:28;;;;;;;7.18;1.45;;;;;;;;;;5078815;28;20211;-61
2022/09/18 06:00:57;;;;;;;2.58;1.40;;;;;;;;;;5078073;28;20201;-60
2022/09/18 06:03:24;;;;;;;8.55;1.85;;;;;;;;;;5078385;28;20593;-60
2022/09/18 06:05:52;;;;;;;3.50;1.70;;;;;;;;;;5076654;28;20211;-61
2022/09/18 06:08:19;;;;;;;7.35;2.42;;;;;;;;;;5076456;28;20212;-62
2022/09/18 06:10:48;;;;;;;14.52;1.75;;;;;;;;;;5075838;28;20213;-62
2022/09/18 06:13:16;;;;;;;5.10;1.85;;;;;;;;;;5076233;28;20570;-62
2022/09/18 06:15:44;;;;;;;3.58;1.40;;;;;;;;;;5076315;28;20207;-62
2022/09/18 06:18:13;;;;;;;4.75;1.73;;;;;;;;;;5075988;28;20201;-62
2022/09/18 06:20:40;;;;;;;11.70;1.75;;;;;;;;;;5076745;28;20208;-62
2022/09/18 06:23:07;;;;;;;5.68;1.67;;;;;;;;;;5074798;28;20228;-61
2022/09/18 06:25:35;;;;;;;10.30;2.05;;;;;;;;;;5074939;28;20211;-61
2022/09/18 06:28:05;;;;;;;10.50;1.95;;;;;;;;;;5074839;28;20201;-62
2022/09/18 06:30:33;;;;;;;10.23;1.60;;;;;;;;;;5075176;28;20213;-62
2022/09/18 06:33:00;;;;;;;5.40;1.77;;;;;;;;;;5073973;28;20224;-62
2022/09/18 06:35:28;;;;;;;3.17;2.43;;;;;;;;;;5074679;28;20212;-61
2022/09/18 06:37:55;;;;;;;3.43;1.73;;;;;;;;;;5074337;28;20447;-62
2022/09/18 06:40:24;;;;;;;5.20;1.70;;;;;;;;;;5074634;28;20447;-63
2022/09/18 06:42:55;;;;;;;3.77;1.13;;;;;;;;;;5074841;28;20828;-62
2022/09/18 06:45:23;;;;;;;7.00;1.55;;;;;;;;;;5074458;28;20903;-62
2022/09/18 06:47:53;;;;;;;2.67;1.47;;;8.70;99.90;;;;;;5074388;28;20212;-62
2022/09/18 06:50:20;;;;;;;6.00;1.77;;;11.10;99.90;;;;;;5075579;28;20470;-62
2022/09/18 06:52:47;;;;;;;3.97;1.33;;;11.10;99.90;;;;;;5074402;28;20992;-62
2022/09/18 06:55:14;;;;;;;4.10;1.30;;;11.10;99.90;;;;;;5075022;28;20455;-61
2022/09/18 06:57:41;;;;;;;3.93;1.67;;;11.10;99.90;;;;;;5074303;28;20443;-60
2022/09/18 07:00:09;;;;;;;4.00;1.40;;;11.00;99.90;;;;;;5074622;28;20447;-61
2022/09/18 07:02:37;;;;;;;3.78;1.60;;;11.00;99.90;;;;;;5074276;28;20939;-62
2022/09/18 07:05:04;;;;;;;8.77;2.00;;;11.00;99.90;;;;;;5074624;28;20205;-62
2022/09/18 07:07:31;;;;;;;5.13;1.97;;;11.00;99.90;;;;;;5074398;28;20466;-62
2022/09/18 07:09:58;;;;;;;7.13;1.50;;;11.00;99.90;;;;;;5073649;28;21006;-62
2022/09/18 07:12:26;;;;;;;4.40;1.63;;;11.10;99.90;;;;;;5074189;28;20451;-62
2022/09/18 07:14:53;;;;;;;7.50;1.63;;;11.10;99.90;;;;;;5074643;28;20467;-62
2022/09/18 07:17:20;;;;;;;5.73;1.67;;;11.30;99.90;;;;;;5074410;28;20482;-62
2022/09/18 07:19:48;;;;;;;5.70;1.30;;;11.40;99.90;;;;;;5074254;28;20439;-61
2022/09/18 07:22:15;;;;;;;6.17;1.97;;;11.60;99.90;;;;;;5073429;28;20452;-62
2022/09/18 07:24:42;;;;;;;3.07;1.03;;;11.60;99.90;;;;;;5073708;28;20467;-61
2022/09/18 07:27:09;;;;;;;4.53;1.17;;;11.80;99.90;;;;;;5073737;28;20445;-62
2022/09/18 07:29:35;;;;;;;4.07;1.33;;;11.90;99.90;;;;;;5073629;28;21051;-62
2022/09/18 07:32:02;;;;;;;4.60;1.30;;;12.00;99.90;;;;;;5073974;28;20471;-62
2022/09/18 07:34:30;;;;;;;5.73;1.40;;;12.10;99.90;;;;;;5073738;28;20465;-62
2022/09/18 07:36:58;;;;;;;3.60;1.20;;;12.10;99.90;;;;;;5073252;28;20813;-61
2022/09/18 07:39:25;;;;;;;3.30;1.30;;;12.10;99.90;;;;;;5073647;28;20439;-61
2022/09/18 07:41:51;;;;;;;8.33;1.77;;;12.10;99.90;;;;;;5073978;28;20447;-60
2022/09/18 07:44:18;;;;;;;5.40;1.50;;;12.10;99.90;;;;;;5073137;28;20562;-61
2022/09/18 07:46:45;;;;;;;7.80;1.67;;;12.20;99.90;;;;;;5073699;28;20455;-62
2022/09/18 07:49:12;;;;;;;3.73;1.30;;;12.20;99.90;;;;;;5073478;28;20740;-61
2022/09/18 07:51:38;;;;;;;7.10;1.50;;;12.30;99.90;;;;;;5072989;28;20902;-63
2022/09/18 07:54:07;;;;;;;4.30;1.37;;;12.40;99.90;;;;;;5073113;28;20459;-61
2022/09/18 07:56:33;;;;;;;4.23;1.50;;;12.30;99.90;;;;;;5072823;28;20451;-61
2022/09/18 07:59:00;;;;;;;4.73;1.40;;;12.20;99.90;;;;;;5073052;28;20513;-61
2022/09/18 08:01:27;;;;;;;6.10;1.50;;;12.10;99.90;;;;;;5073105;28;20451;-62
2022/09/18 08:03:54;;;;;;;4.43;1.80;;;12.10;99.90;;;;;;5073944;28;20471;-61
2022/09/18 08:06:21;;;;;;;2.47;1.23;;;12.10;99.90;;;;;;5078759;28;20451;-61
2022/09/18 08:08:47;;;;;;;3.63;0.83;;;12.10;99.90;;;;;;5075275;28;20451;-62
2022/09/18 08:11:15;;;;;;;2.50;1.07;;;12.10;99.90;;;;;;5076410;28;20474;-64
2022/09/18 08:13:42;;;;;;;4.93;1.30;;;12.20;99.90;;;;;;5073730;28;20459;-65
2022/09/18 08:16:09;;;;;;;3.80;1.30;;;12.30;99.90;;;;;;5073592;28;20443;-65
2022/09/18 08:18:38;;;;;;;2.50;1.03;;;12.50;99.90;;;;;;5072964;28;20931;-65
2022/09/18 08:21:05;;;;;;;2.60;0.90;;;12.70;99.90;;;;;;5072966;28;20447;-63
2022/09/18 08:23:32;;;;;;;1.93;1.00;;;12.90;99.90;;;;;;5072847;28;20467;-64
2022/09/18 08:25:59;;;;;;;3.17;1.03;;;13.10;99.90;;;;;;5073230;28;20538;-64
2022/09/18 08:28:27;;;;;;;1.63;0.80;;;13.30;99.90;;;;;;5072622;28;20442;-64
2022/09/18 08:30:54;;;;;;;2.97;1.00;;;13.30;99.90;;;;;;5072673;28;20475;-65
2022/09/18 08:33:21;;;;;;;4.97;1.20;;;13.30;99.90;;;;;;5072796;28;20458;-65
2022/09/18 08:35:48;;;;;;;3.60;1.70;;;13.10;99.90;;;;;;5072740;28;20443;-64
2022/09/18 08:38:15;;;;;;;1.77;0.70;;;13.00;99.90;;;;;;5072798;28;20782;-62
2022/09/18 08:41:15;;;;;;;2.93;0.93;;;13.00;99.90;;;;;;5073054;28;20470;-63
2022/09/18 08:43:57;;;;;;;2.60;1.10;;;13.00;99.90;;;;;;5072603;28;20466;-63
2022/09/18 08:46:29;;;;;;;2.40;1.10;;;13.10;99.90;;;;;;5072910;28;20438;-64
2022/09/18 08:49:04;;;;;;;3.60;1.00;;;13.10;99.90;;;;;;5072502;28;20891;-63
2022/09/18 08:51:35;;;;;;;2.67;1.00;;;13.00;99.90;;;;;;5072850;28;20540;-64
2022/09/18 08:54:18;;;;;;;1.43;0.80;;;12.90;99.90;;;;;;5073296;28;20467;-65
2022/09/18 08:56:46;;;;;;;3.83;1.20;;;12.80;99.90;;;;;;5075816;28;20891;-63
2022/09/18 08:59:18;;;;;;;4.97;2.20;;;12.80;99.90;;;;;;5076537;28;20471;-63
2022/09/18 09:01:51;;;;;;;1.87;1.10;;;12.80;99.90;;;;;;5076452;28;20427;-63
2022/09/18 09:04:23;;;;;;;6.50;0.97;;;12.90;99.90;;;;;;5071685;28;20467;-63
2022/09/18 09:07:02;;;;;;;4.23;1.10;;;13.00;99.90;;;;;;5074009;28;20428;-62
2022/09/18 09:09:41;;;;;;;2.97;1.10;;;13.10;99.90;;;;;;5075908;28;20451;-63
2022/09/18 09:12:16;;;;;;;3.43;1.23;;;13.30;99.90;;;;;;5056445;28;20470;-64
2022/09/18 09:15:14;;;;;;;1.30;1.00;;;13.40;99.90;;;;;;5056205;28;20466;-62
2022/09/18 09:17:48;;;;;;;4.30;1.50;;;13.50;99.90;;;;;;5056347;28;20486;-62
2022/09/18 09:20:21;;;;;;;2.50;1.07;;;13.50;99.90;;;;;;5055995;28;20488;-62
2022/09/18 09:23:02;;;;;;;4.17;1.33;;;13.40;99.90;;;;;;5056086;28;20489;-63
2022/09/18 09:25:39;;;;;;;2.70;1.60;;;13.20;99.90;;;;;;5058564;28;20795;-64
2022/09/18 09:28:14;;;;;;;2.63;1.00;;;13.20;99.90;;;;;;5061269;28;20585;-63
2022/09/18 09:30:44;;;;;;;3.03;1.10;;;13.30;99.90;;;;;;5065357;28;20525;-64
2022/09/18 09:33:20;;;;;;;1.87;1.03;;;13.40;99.90;;;;;;5064569;28;20840;-63
2022/09/18 09:35:49;;;;;;;3.43;1.50;;;13.40;99.90;;;;;;5086150;28;20441;-63
2022/09/18 09:38:31;;;;;;;3.63;1.30;;;13.30;99.90;;;;;;5082718;22;20504;-61
2022/09/18 09:41:01;;;;;;;3.97;1.00;;;13.30;99.90;;;;;;5036059;28;20480;-63
2022/09/18 09:43:35;;;;;;;2.43;1.00;;;13.50;99.90;;;;;;5036824;28;20440;-63
2022/09/18 09:46:11;;;;;;;1.23;0.80;;;13.60;99.60;;;;;;5036928;28;20437;-62
2022/09/18 09:48:44;;;;;;;3.13;1.30;;;13.70;98.70;;;;;;5036996;28;20453;-63
2022/09/18 09:51:18;;;;;;;2.73;1.20;;;13.80;97.90;;;;;;5037665;28;20476;-59
2022/09/18 09:53:45;;;;;;;1.73;0.90;;;14.00;97.70;;;;;;5037892;28;20512;-61
2022/09/18 09:56:19;;;;;;;2.40;1.10;;;14.20;96.90;;;;;;5039733;28;20445;-60
2022/09/18 09:58:55;;;;;;;3.13;0.80;;;14.30;96.30;;;;;;5036350;28;20878;-59
2022/09/18 10:01:27;;;;;;;2.33;1.10;;;14.30;95.90;;;;;;5035802;28;20421;-61
2022/09/18 10:04:07;;;;;;;3.30;1.00;;;14.10;95.70;;;;;;5035310;28;20831;-59
2022/09/18 10:06:47;;;;;;;2.83;0.87;;;13.90;95.40;;;;;;5036091;28;20504;-57
2022/09/18 10:09:23;;;;;;;2.60;1.23;;;13.70;96.10;;;;;;5036711;28;20521;-58
2022/09/18 10:11:57;;;;;;;2.13;1.10;;;13.50;97.10;;;;;;5035551;28;20484;-61
2022/09/18 10:14:27;;;;;;;2.63;1.00;;;13.50;97.80;;;;;;5036412;28;20425;-59
2022/09/18 10:16:57;;;;;;;2.00;0.97;;;13.50;97.90;;;;;;5038226;28;20995;-60
2022/09/18 10:19:34;;;;;;;5.87;1.10;;;13.30;97.80;;;;;;5037180;28;20953;-58
2022/09/18 10:22:06;;;;;;;3.30;1.00;;;13.10;98.30;;;;;;5037457;28;20432;-56
2022/09/18 10:24:44;;;;;;;1.13;1.00;;;12.90;98.90;;;;;;5038176;28;20444;-58
2022/09/18 10:27:13;;;;;;;2.33;1.00;;;12.90;99.20;;;;;;5035555;28;20476;-58
2022/09/18 10:29:40;;;;;;;5.03;1.20;;;13.00;98.90;;;;;;5035821;28;20441;-61
2022/09/18 10:32:11;;;;;;;1.27;1.03;;;13.10;98.60;;;;;;5041059;28;20488;-61
2022/09/18 10:34:44;;;;;;;1.60;1.00;;;13.20;97.90;;;;;;5036182;28;20437;-61
2022/09/18 10:37:15;;;;;;;2.57;1.10;;;13.40;98.00;;;;;;5035228;28;20481;-60
2022/09/18 10:39:50;;;;;;;3.00;1.00;;;13.60;97.70;;;;;;5034252;28;20445;-59
2022/09/18 10:42:21;;;;;;;1.03;0.77;;;13.80;96.60;;;;;;5034285;28;20459;-60
2022/09/18 10:44:53;;;;;;;1.27;0.80;;;13.90;96.10;;;;;;5041446;28;20509;-58
2022/09/18 10:47:24;;;;;;;1.23;0.87;;;13.90;95.90;;;;;;5038261;28;20476;-60
2022/09/18 10:49:54;;;;;;;2.27;0.73;;;13.80;95.70;;;;;;5039997;28;20434;-59
2022/09/18 10:52:31;;;;;;;2.67;1.03;;;13.70;96.20;;;;;;5038961;28;20445;-62
2022/09/18 10:55:08;;;;;;;3.07;1.27;;;13.70;96.30;;;;;;5039205;28;20781;-60
2022/09/18 10:57:37;;;;;;;2.50;1.10;;;13.80;96.20;;;;;;5037626;28;20469;-61
2022/09/18 11:00:31;;;;;;;2.00;0.90;;;13.70;95.60;;;;;;5039533;28;20449;-60
2022/09/18 11:03:06;;;;;;;3.33;1.47;;;13.60;95.70;;;;;;5035742;28;20913;-58
2022/09/18 11:05:35;;;;;;;6.07;1.10;;;13.60;95.80;;;;;;5034720;28;20444;-59
2022/09/18 11:08:07;;;;;;;2.20;0.90;;;13.60;95.40;;;;;;5034135;28;20465;-58
2022/09/18 11:10:35;;;;;;;3.33;0.90;;;13.50;95.40;;;;;;5033735;28;20476;-59
2022/09/18 11:13:02;;;;;;;1.00;0.73;;;13.60;95.60;;;;;;5034453;28;20552;-60
2022/09/18 11:15:33;;;;;;;3.27;1.00;;;13.70;95.50;;;;;;5034554;28;20547;-60
2022/09/18 11:18:03;;;;;;;3.53;0.90;;;13.80;94.60;;;;;;5034114;28;20496;-61
2022/09/18 11:20:32;;;;;;;2.33;0.80;;;13.80;94.30;;;;;;5034058;28;20438;-60
2022/09/18 11:23:14;;;;;;;1.00;0.80;;;13.90;94.30;;;;;;5033671;28;20455;-61
2022/09/18 11:25:41;;;;;;;3.53;0.90;;;13.90;93.40;;;;;;5037758;28;20435;-60
2022/09/18 11:28:26;;;;;;;1.67;1.10;;;13.90;93.20;;;;;;5036553;28;20471;-60
2022/09/18 11:30:58;;;;;;;2.30;0.97;;;13.70;92.50;;;;;;5035968;28;20464;-60
2022/09/18 11:33:30;;;;;;;4.17;0.70;;;13.70;92.60;;;;;;5036774;28;20445;-60
2022/09/18 11:36:01;;;;;;;4.27;0.80;;;13.70;92.60;;;;;;5036545;28;20425;-60
2022/09/18 11:38:28;;;;;;;1.10;0.80;;;13.70;92.10;;;;;;5034392;28;20477;-60
2022/09/18 11:40:57;;;;;;;1.63;0.83;;;13.70;92.00;;;;;;5034823;28;20528;-59
2022/09/18 11:43:26;;;;;;;3.17;1.50;;;13.80;91.80;;;;;;5035510;28;20449;-59
2022/09/18 11:46:02;;;;;;;1.20;0.80;;;13.80;91.50;;;;;;5035153;28;20445;-60
2022/09/18 11:48:36;;;;;;;1.40;0.70;;;13.90;91.20;;;;;;5036316;28;20516;-62
2022/09/18 11:51:09;;;;;;;3.13;0.73;;;14.10;90.80;;;;;;5036590;28;20479;-60
2022/09/18 11:53:41;;;;;;;2.70;0.80;;;14.10;90.60;;;;;;5037128;28;20468;-59
2022/09/18 11:56:14;;;;;;;1.37;0.60;;;13.90;90.60;;;;;;5036807;28;20516;-61
2022/09/18 11:58:47;;;;;;;1.67;0.90;;;13.80;91.00;;;;;;5035284;28;20469;-62
2022/09/18 12:01:26;;;;;;;3.93;0.97;;;13.70;91.50;;;;;;5034311;28;20426;-60
2022/09/18 12:03:59;;;;;;;1.30;0.80;;;13.70;91.80;;;;;;5034839;28;20436;-61
2022/09/18 12:06:34;;;;;;;1.00;0.60;;;13.70;92.10;;;;;;5034822;28;20430;-60
2022/09/18 12:09:10;;;;;;;1.63;0.80;;;13.70;92.30;;;;;;5034191;28;20472;-59
2022/09/18 12:11:42;;;;;;;3.07;1.10;;;13.60;92.60;;;;;;5024246;28;20543;-60
2022/09/18 12:14:17;;;;;;;3.77;0.97;;;13.50;93.00;;;;;;5033603;28;20451;-59
2022/09/18 12:16:49;;;;;;;1.77;0.80;;;13.40;93.50;;;;;;5030490;28;20456;-60
2022/09/18 12:19:23;;;;;;;1.23;0.80;;;13.40;94.10;;;;;;5033789;28;20809;-60
2022/09/18 12:21:57;;;;;;;1.10;0.77;;;13.40;94.50;;;;;;5019908;28;20438;-60
2022/09/18 12:24:24;;;;;;;2.17;0.80;;;13.50;94.50;;;;;;5024759;28;20440;-58
2022/09/18 12:27:04;;;;;;;1.50;1.10;;;13.50;94.40;;;;;;5035752;28;20445;-60
2022/09/18 12:30:00;;;;;;;1.80;1.20;;;13.60;94.30;;;;;;5035382;28;20528;-58
2022/09/18 12:32:46;;;;;;;2.17;1.10;;;13.50;94.20;;;;;;5033196;28;20848;-63
2022/09/18 12:35:26;;;;;;;2.40;1.13;;;13.30;94.40;;;;;;5037871;28;20499;-59
2022/09/18 12:38:05;;;;;;;1.10;0.63;;;13.20;94.90;;;;;;5037718;28;20489;-61
2022/09/18 12:40:49;;;;;;;1.70;0.97;;;13.20;95.20;;;;;;5038007;28;20448;-60
2022/09/18 12:43:43;;;;;;;2.17;0.80;;;13.10;95.40;;;;;;5036981;28;20441;-60
2022/09/18 12:46:31;;;;;;;2.60;0.93;;;13.10;95.80;;;;;;5026334;28;20806;-61
2022/09/18 12:49:10;;;;;;;1.17;0.60;;;13.30;96.10;;;;;;5045279;28;20464;-60
2022/09/18 12:51:43;;;;;;;2.70;0.83;;;13.60;95.60;;;;;;5038106;28;20487;-60
2022/09/18 12:54:34;;;;;;;2.37;0.77;;;13.90;95.00;;;;;;5036438;28;20447;-60
2022/09/18 12:57:15;;;;;;;2.07;0.80;;;14.10;94.20;;;;;;5036193;28;20448;-59
2022/09/18 12:59:51;;;;;;;1.57;0.80;;;14.20;93.40;;;;;;5020389;28;20457;-60
2022/09/18 13:02:27;;;;;;;3.40;0.87;;;14.20;93.00;;;;;;5016868;28;20453;-60
2022/09/18 13:05:02;;;;;;;1.17;0.60;;;14.20;92.40;;;;;;5024502;28;20433;-59
2022/09/18 13:07:33;;;;;;;1.13;0.60;;;14.20;92.40;;;;;;5036292;28;20460;-60
2022/09/18 13:10:06;;;;;;;3.43;1.30;;;14.30;92.30;;;;;;5036377;28;20429;-60
2022/09/18 13:12:38;;;;;;;1.90;0.80;;;14.20;92.10;;;;;;5035073;28;20465;-59
2022/09/18 13:15:14;;;;;;;1.17;0.70;;;14.20;92.30;;;;;;5037495;28;20445;-60
2022/09/18 13:17:45;;;;;;;1.20;0.70;;;14.30;92.60;;;;;;5038699;28;20468;-59
2022/09/18 13:20:18;;;;;;;1.80;0.70;;;14.30;92.40;;;;;;5037636;28;20463;-59
2022/09/18 13:22:49;;;;;;;2.07;0.73;;;14.30;92.20;;;;;;5036034;28;20440;-59
2022/09/18 13:25:24;;;;;;;3.00;0.90;;;14.40;92.30;;;;;;5036897;28;20437;-60
2022/09/18 13:27:53;;;;;;;1.33;0.73;;;14.50;91.30;;;;;;5036870;28;20507;-59
2022/09/18 13:30:24;;;;;;;2.50;1.10;;;14.60;90.80;;;;;;5036012;28;20449;-60
2022/09/18 13:32:51;;;;;;;1.00;0.70;;;14.50;90.10;;;;;;5035977;28;20499;-61